Time;durP1;ratioP1;P1;durP2;ratioP2;P2;SDS_P1;SDS_P2;PMS_P1;PMS_P2;Temp;Humidity;BMP_temperature;BMP_pressure;BME280_temperature;BME280_humidity;BME280_pressure;Samples;Min_cycle;Max_cycle;Signal;HPM_P1;HPM_P2
2022/12/05 00:01:41;;;;;;;28.17;12.15;;;;;;;0.45;98.51;98913.05;1656391;86;25532;-78
2022/12/05 00:04:11;;;;;;;29.42;13.43;;;;;;;0.47;98.50;98913.63;1656489;86;25504;-78
2022/12/05 00:06:40;;;;;;;25.82;12.25;;;;;;;0.45;98.46;98907.66;1656224;86;26071;-77
2022/12/05 00:09:10;;;;;;;35.55;13.13;;;;;;;0.43;98.59;98903.84;1656916;86;25640;-74
2022/12/05 00:11:40;;;;;;;16.12;8.93;;;;;;;0.39;98.67;98908.09;1656475;86;28196;-69
2022/12/05 00:14:08;;;;;;;30.30;11.95;;;;;;;0.36;98.70;98909.40;1656302;86;25704;-75
2022/12/05 00:16:38;;;;;;;24.02;10.80;;;;;;;0.34;98.89;98896.67;1656415;86;25737;-70
2022/12/05 00:19:07;;;;;;;29.72;11.97;;;;;;;0.33;99.02;98888.83;1656353;86;26133;-78
2022/12/05 00:21:36;;;;;;;23.65;9.70;;;;;;;0.33;99.23;98896.40;1656547;86;25436;-70
2022/12/05 00:24:05;;;;;;;23.98;11.88;;;;;;;0.31;99.32;98890.42;1656422;86;27481;-78
2022/12/05 00:26:32;;;;;;;26.20;11.97;;;;;;;0.35;99.34;98888.07;1656269;86;25512;-75
2022/12/05 00:28:59;;;;;;;26.05;10.82;;;;;;;0.33;99.35;98879.39;1656133;86;25466;-69
2022/12/05 00:31:27;;;;;;;34.48;15.15;;;;;;;0.33;99.41;98876.70;1656239;86;26043;-75
2022/12/05 00:33:55;;;;;;;32.13;13.22;;;;;;;0.38;99.40;98884.89;1656057;86;25700;-77
2022/12/05 00:36:26;;;;;;;23.75;10.60;;;;;;;0.41;99.28;98886.28;1656404;86;27482;-79
2022/12/05 00:38:53;;;;;;;35.92;14.18;;;;;;;0.41;99.17;98883.59;1656553;86;25645;-73
2022/12/05 00:41:25;;;;;;;32.13;13.48;;;;;;;0.42;99.14;98877.12;1656538;86;25509;-78
2022/12/05 00:43:54;;;;;;;16.50;7.58;;;;;;;0.45;99.13;98876.12;1656165;86;28239;-75
2022/12/05 00:46:24;;;;;;;26.55;11.73;;;;;;;0.45;98.98;98867.20;1656399;86;25693;-76
2022/12/05 00:48:53;;;;;;;24.37;10.10;;;;;;;0.43;98.87;98869.34;1656672;86;27416;-75
2022/12/05 00:51:25;;;;;;;28.35;12.15;;;;;;;0.39;98.94;98868.17;1656348;86;25739;-71
2022/12/05 00:53:52;;;;;;;22.67;9.88;;;;;;;0.36;98.92;98873.00;1656227;86;25632;-73
2022/12/05 00:56:22;;;;;;;34.15;13.78;;;;;;;0.35;99.31;98874.59;1656378;86;26688;-70
2022/12/05 00:58:51;;;;;;;34.73;13.48;;;;;;;0.38;99.38;98867.38;1656809;86;25460;-69
2022/12/05 01:01:28;;;;;;;23.95;9.50;;;;;;;0.37;99.23;98866.54;1656432;86;27458;-72
2022/12/05 01:03:58;;;;;;;31.02;14.15;;;;;;;0.37;99.25;98864.36;1656348;86;25778;-71
2022/12/05 01:06:27;;;;;;;31.97;14.25;;;;;;;0.42;99.34;98872.56;1656299;86;25567;-72
2022/12/05 01:08:55;;;;;;;17.67;8.35;;;;;;;0.37;99.20;98874.63;1656327;86;26043;-75
2022/12/05 01:11:23;;;;;;;21.05;10.13;;;;;;;0.40;99.32;98881.41;1656362;86;25648;-76
2022/12/05 01:13:50;;;;;;;32.65;14.00;;;;;;;0.42;99.20;98875.77;1656339;86;27559;-73
2022/12/05 01:16:21;;;;;;;23.62;9.23;;;;;;;0.44;99.11;98877.71;1656278;86;25476;-74
2022/12/05 01:18:47;;;;;;;31.20;14.05;;;;;;;0.44;99.16;98884.45;1656586;86;28499;-76
2022/12/05 01:21:14;;;;;;;36.35;15.85;;;;;;;0.45;99.16;98884.73;1656288;86;26048;-75
2022/12/05 01:23:40;;;;;;;36.83;16.50;;;;;;;0.50;99.11;98888.88;1656562;85;25831;-75
2022/12/05 01:26:11;;;;;;;29.87;12.93;;;;;;;0.54;98.98;98897.29;1656528;86;28114;-76
2022/12/05 01:28:39;;;;;;;29.23;13.50;;;;;;;0.57;98.89;98896.81;1656557;86;25712;-76
2022/12/05 01:31:09;;;;;;;30.50;11.78;;;;;;;0.58;98.65;98890.38;1656707;86;25710;-74
2022/12/05 01:33:35;;;;;;;26.70;13.25;;;;;;;0.56;98.56;98889.79;1656617;86;26777;-77
2022/12/05 01:36:03;;;;;;;31.62;13.58;;;;;;;0.56;98.63;98873.09;1656575;86;25779;-74
2022/12/05 01:38:29;;;;;;;27.05;12.15;;;;;;;0.56;98.57;98873.61;1656532;86;27402;-74
2022/12/05 01:41:04;;;;;;;30.88;12.80;;;;;;;0.58;98.68;98873.64;1656569;86;25759;-74
2022/12/05 01:43:31;;;;;;;25.65;11.00;;;;;;;0.60;98.57;98878.27;1656340;86;25451;-75
2022/12/05 01:45:57;;;;;;;28.05;12.70;;;;;;;0.60;98.50;98871.53;1656396;86;26014;-75
2022/12/05 01:48:31;;;;;;;29.30;13.43;;;;;;;0.58;98.45;98870.15;1656519;86;25675;-75
2022/12/05 01:50:59;;;;;;;24.63;10.98;;;;;;;0.55;98.49;98867.38;1656629;86;27454;-73
2022/12/05 01:53:27;;;;;;;30.32;13.32;;;;;;;0.56;98.58;98877.12;1656698;86;25659;-70
2022/12/05 01:55:56;;;;;;;26.15;12.53;;;;;;;0.56;98.55;98874.44;1656579;86;25463;-74
2022/12/05 01:58:27;;;;;;;24.72;10.05;;;;;;;0.62;98.58;98879.38;1656512;86;25796;-77
2022/12/05 02:00:53;;;;;;;19.67;8.20;;;;;;;0.61;98.33;98874.51;1656581;86;25472;-75
2022/12/05 02:03:21;;;;;;;27.58;12.25;;;;;;;0.59;98.31;98879.86;1656487;86;27378;-73
2022/12/05 02:05:50;;;;;;;26.02;11.45;;;;;;;0.59;98.40;98881.22;1656377;86;25686;-70
2022/12/05 02:08:17;;;;;;;32.08;14.58;;;;;;;0.59;98.44;98877.17;1656639;86;25538;-68
2022/12/05 02:10:49;;;;;;;37.10;15.13;;;;;;;0.56;98.41;98871.73;1656361;86;26038;-69
2022/12/05 02:13:33;;;;;;;29.30;12.98;;;;;;;0.60;98.54;98881.49;1656589;86;25524;-72
2022/12/05 02:16:27;;;;;;;17.60;8.48;;;;;;;0.62;98.45;98880.73;1656228;86;27457;-71
2022/12/05 02:19:11;;;;;;;16.42;7.62;;;;;;;0.66;98.37;98879.73;1656133;86;25637;-70
2022/12/05 02:22:04;;;;;;;31.10;13.20;;;;;;;0.62;98.21;98872.64;1656220;86;25688;-70
2022/12/05 02:24:44;;;;;;;22.60;10.00;;;;;;;0.60;98.27;98873.41;1655261;86;28200;-72
2022/12/05 02:27:22;;;;;;;28.90;12.82;;;;;;;0.57;98.30;98890.89;1656330;86;25447;-71
2022/12/05 02:30:14;;;;;;;30.52;12.55;;;;;;;0.58;98.49;98886.33;1654573;86;27480;-72
2022/12/05 02:33:04;;;;;;;35.95;14.45;;;;;;;0.60;98.47;98884.19;1656496;86;25604;-72
2022/12/05 02:35:47;;;;;;;19.67;9.80;;;;;;;0.61;98.27;98877.75;1656406;86;25509;-68
2022/12/05 02:38:28;;;;;;;30.90;13.22;;;;;;;0.59;98.32;98878.00;1656026;86;25866;-68
2022/12/05 02:41:22;;;;;;;29.72;12.82;;;;;;;0.60;98.31;98879.63;1656359;86;25708;-69
2022/12/05 02:44:03;;;;;;;26.97;11.57;;;;;;;0.61;98.35;98882.59;1649548;86;28021;-67
2022/12/05 02:46:33;;;;;;;27.00;11.68;;;;;;;0.62;98.13;98882.08;1645110;86;25516;-67
2022/12/05 02:49:12;;;;;;;28.73;12.33;;;;;;;0.63;98.10;98887.75;1646485;86;25464;-66
2022/12/05 02:51:44;;;;;;;23.10;9.40;;;;;;;0.61;98.08;98893.39;1646451;87;26054;-68
2022/12/05 02:54:18;;;;;;;21.27;8.60;;;;;;;0.62;98.08;98890.17;1646857;87;25771;-67
2022/12/05 02:56:46;;;;;;;31.90;13.30;;;;;;;0.59;98.10;98883.91;1646419;87;27506;-68
2022/12/05 02:59:13;;;;;;;32.53;13.93;;;;;;;0.59;98.10;98880.70;1646309;87;26208;-69
2022/12/05 03:01:39;;;;;;;29.12;13.60;;;;;;;0.61;98.24;98876.41;1646526;86;25652;-66
2022/12/05 03:04:09;;;;;;;25.52;12.25;;;;;;;0.65;98.29;98872.16;1646525;87;26013;-68
2022/12/05 03:06:42;;;;;;;21.15;9.40;;;;;;;0.67;98.04;98870.56;1646780;86;25471;-70
2022/12/05 03:09:13;;;;;;;25.90;12.23;;;;;;;0.66;97.96;98878.38;1673637;85;27484;-66
2022/12/05 03:12:06;;;;;;;28.23;12.55;;;;;;;0.62;97.88;98876.69;1676054;84;25709;-70
2022/12/05 03:14:50;;;;;;;28.25;11.57;;;;;;;0.62;98.10;98881.56;1655945;86;25446;-71
2022/12/05 03:17:22;;;;;;;26.07;11.33;;;;;;;0.60;98.05;98874.23;1655354;86;26321;-66
2022/12/05 03:19:57;;;;;;;24.55;10.93;;;;;;;0.59;98.00;98872.60;1656452;86;25787;-66
2022/12/05 03:22:48;;;;;;;26.27;11.65;;;;;;;0.54;98.08;98868.97;1656732;86;27945;-74
2022/12/05 03:25:16;;;;;;;37.23;14.50;;;;;;;0.52;98.22;98856.28;1647102;86;25637;-68
2022/12/05 03:28:07;;;;;;;21.70;8.85;;;;;;;0.50;98.37;98860.56;1646748;87;25445;-68
2022/12/05 03:30:37;;;;;;;36.98;15.45;;;;;;;0.48;98.48;98853.23;1646791;87;26106;-76
2022/12/05 03:33:17;;;;;;;29.72;11.80;;;;;;;0.51;98.59;98851.95;1646899;86;25606;-68
2022/12/05 03:35:58;;;;;;;29.55;12.93;;;;;;;0.47;98.51;98843.00;1646551;87;27594;-68
2022/12/05 03:38:41;;;;;;;28.52;11.48;;;;;;;0.46;98.61;98843.25;1646419;86;25451;-66
2022/12/05 03:41:42;;;;;;;33.78;14.23;;;;;;;0.48;98.61;98856.77;1624830;87;25685;-71
2022/12/05 03:44:29;;;;;;;28.10;10.88;;;;;;;0.49;98.54;98852.20;1627153;87;25905;-67
2022/12/05 03:47:01;;;;;;;25.97;10.75;;;;;;;0.48;98.49;98850.55;1579871;90;25498;-69
2022/12/05 03:49:41;;;;;;;26.07;10.15;;;;;;;0.44;98.56;98824.61;1579706;90;28053;-70
2022/12/05 03:52:15;;;;;;;30.43;13.05;;;;;;;0.43;98.73;98846.42;1580232;90;25766;-68
2022/12/05 03:54:56;;;;;;;30.23;12.63;;;;;;;0.42;98.77;98847.47;1580919;90;25648;-68
2022/12/05 03:57:33;;;;;;;24.15;10.43;;;;;;;0.43;98.86;98824.30;1580092;90;26010;-71
2022/12/05 04:00:08;;;;;;;20.60;9.40;;;;;;;0.42;98.97;98821.33;1580585;90;25881;-67
2022/12/05 04:02:49;;;;;;;30.15;12.05;;;;;;;0.43;99.00;98822.95;1629501;87;27424;-67
2022/12/05 04:05:26;;;;;;;32.40;14.50;;;;;;;0.41;98.86;98826.97;1626976;87;29513;-69
2022/12/05 04:08:00;;;;;;;26.60;12.30;;;;;;;0.42;98.96;98834.81;1617502;88;25602;-78
2022/12/05 04:10:31;;;;;;;28.35;12.37;;;;;;;0.40;98.99;98850.95;1618218;87;26216;-71
2022/12/05 04:13:16;;;;;;;26.68;10.50;;;;;;;0.41;99.01;98856.10;1625067;88;25524;-69
2022/12/05 04:17:02;;;;;;;25.92;11.55;;;;;;;0.41;98.97;98855.27;1625592;87;25929;-76
2022/12/05 04:18:01;;;;;;;36.35;14.33;;;;;;;0.45;99.06;98851.03;1624327;87;25692;-70
2022/12/05 04:23:28;;;;;;;37.53;15.13;;;;;;;0.48;98.92;98852.72;1613769;86;25493;-67
2022/12/05 04:26:08;;;;;;;22.17;9.30;;;;;;;0.54;98.95;98854.97;1662495;86;25498;-70
2022/12/05 04:28:43;;;;;;;18.07;8.10;;;;;;;0.54;98.80;98848.23;1652385;86;29534;-68
2022/12/05 04:31:23;;;;;;;29.67;13.08;;;;;;;0.55;98.79;98841.77;1654820;86;25462;-68
2022/12/05 04:33:58;;;;;;;37.88;15.03;;;;;;;0.56;98.72;98843.42;1652112;86;25512;-77
2022/12/05 04:36:41;;;;;;;32.70;14.18;;;;;;;0.60;98.71;98850.48;1652854;86;26004;-73
2022/12/05 04:39:16;;;;;;;32.85;11.60;;;;;;;0.62;98.67;98850.55;1656801;86;25622;-69
2022/12/05 04:42:00;;;;;;;28.30;11.93;;;;;;;0.64;98.39;98850.82;1648823;86;27510;-74
2022/12/05 04:44:37;;;;;;;40.10;15.93;;;;;;;0.61;98.27;98862.38;1647340;86;25650;-72
2022/12/05 04:47:07;;;;;;;42.43;16.62;;;;;;;0.60;98.35;98863.96;1656376;86;25696;-69
2022/12/05 04:49:36;;;;;;;35.45;13.83;;;;;;;0.62;98.42;98847.84;1651367;86;25981;-77
2022/12/05 04:52:09;;;;;;;40.73;14.98;;;;;;;0.60;98.28;98842.39;1646648;87;25458;-75
2022/12/05 04:54:41;;;;;;;37.42;13.30;;;;;;;0.60;98.37;98840.52;1646677;86;27406;-75
2022/12/05 04:57:13;;;;;;;26.75;11.30;;;;;;;0.63;98.35;98831.11;1646708;87;25682;-71
2022/12/05 04:59:39;;;;;;;36.95;15.15;;;;;;;0.64;98.29;98835.47;1645941;87;25439;-72
2022/12/05 05:02:12;;;;;;;26.95;11.05;;;;;;;0.65;98.20;98828.17;1646487;87;26130;-69
2022/12/05 05:04:46;;;;;;;36.20;15.88;;;;;;;0.66;98.14;98829.27;1646377;86;25743;-70
2022/12/05 05:07:13;;;;;;;30.02;11.65;;;;;;;0.66;98.02;98828.48;1645924;87;27491;-78
2022/12/05 05:09:41;;;;;;;31.50;13.95;;;;;;;0.64;97.92;98832.77;1646632;86;25843;-77
2022/12/05 05:12:09;;;;;;;36.63;15.38;;;;;;;0.59;97.89;98827.27;1646399;87;25479;-74
2022/12/05 05:14:35;;;;;;;23.55;10.43;;;;;;;0.60;98.06;98824.85;1646571;86;26071;-75
2022/12/05 05:17:02;;;;;;;36.42;16.25;;;;;;;0.61;98.04;98821.11;1646357;87;25742;-70
2022/12/05 05:19:29;;;;;;;30.32;14.00;;;;;;;0.57;98.00;98822.13;1646638;87;27560;-70
2022/12/05 05:21:56;;;;;;;33.67;14.60;;;;;;;0.57;98.10;98820.77;1646524;86;25681;-69
2022/12/05 05:24:25;;;;;;;21.07;9.48;;;;;;;0.60;98.11;98827.03;1646412;86;25612;-70
2022/12/05 05:26:51;;;;;;;29.70;12.75;;;;;;;0.55;97.90;98822.09;1646294;87;25573;-73
2022/12/05 05:29:18;;;;;;;21.30;9.23;;;;;;;0.48;97.97;98821.70;1646725;86;25658;-70
2022/12/05 05:31:44;;;;;;;31.37;13.75;;;;;;;0.48;98.10;98830.32;1646731;87;27549;-74
2022/12/05 05:34:14;;;;;;;29.05;13.13;;;;;;;0.45;98.04;98815.45;1646620;87;25741;-72
2022/12/05 05:36:41;;;;;;;31.65;12.53;;;;;;;0.47;98.23;98820.60;1646226;87;25708;-71
2022/12/05 05:39:12;;;;;;;40.52;16.60;;;;;;;0.48;98.19;98819.53;1646673;87;26066;-71
2022/12/05 05:41:38;;;;;;;;;;;;;;;0.53;98.29;98823.68;1649199;86;25470;-71
2022/12/05 05:44:04;;;;;;;25.85;10.93;;;;;;;0.54;98.15;98819.91;1646574;87;28191;-73
2022/12/05 05:46:34;;;;;;;16.67;8.23;;;;;;;0.48;98.00;98810.92;1646610;87;25819;-71
2022/12/05 05:49:00;;;;;;;19.50;9.78;;;;;;;0.40;98.06;98795.13;1646667;87;25696;-75
2022/12/05 05:51:29;;;;;;;18.02;7.42;;;;;;;0.37;98.36;98802.36;1616999;88;26005;-71
2022/12/05 05:53:57;;;;;;;22.60;10.45;;;;;;;0.37;98.38;98809.09;1616684;87;25725;-71
2022/12/05 05:56:24;;;;;;;26.60;11.30;;;;;;;0.40;98.45;98813.20;1646595;85;27412;-72
2022/12/05 05:59:00;;;;;;;20.15;8.15;;;;;;;0.39;98.38;98816.42;1646570;86;25658;-71
2022/12/05 06:01:27;;;;;;;29.27;11.90;;;;;;;0.37;98.37;98810.45;1646770;86;25417;-71
2022/12/05 06:03:54;;;;;;;19.67;8.33;;;;;;;0.34;98.37;98813.63;1646640;87;26054;-71
2022/12/05 06:06:21;;;;;;;29.65;13.40;;;;;;;0.30;98.46;98811.13;1646705;87;25602;-71
2022/12/05 06:08:48;;;;;;;25.15;10.45;;;;;;;0.31;98.58;98805.50;1646664;87;27477;-72
2022/12/05 06:11:20;;;;;;;28.62;12.53;;;;;;;0.32;98.71;98808.47;1646870;87;25818;-71
2022/12/05 06:13:47;;;;;;;28.87;13.00;;;;;;;0.36;98.69;98821.78;1646926;86;25471;-71
2022/12/05 06:16:23;;;;;;;31.87;13.38;;;;;;;0.36;98.63;98810.99;1646791;87;26593;-75
2022/12/05 06:18:55;;;;;;;30.80;12.98;;;;;;;0.34;98.54;98819.02;1646511;87;25669;-73
2022/12/05 06:21:38;;;;;;;30.55;14.05;;;;;;;0.34;98.67;98828.45;1646638;87;27564;-79
2022/12/05 06:24:12;;;;;;;30.52;12.85;;;;;;;0.41;98.93;98837.75;1646482;87;25526;-75
2022/12/05 06:26:54;;;;;;;30.77;13.05;;;;;;;0.41;98.55;98834.53;1646743;86;25559;-74
2022/12/05 06:29:21;;;;;;;24.60;10.18;;;;;;;0.46;98.69;98837.30;1651780;86;26046;-73
2022/12/05 06:31:47;;;;;;;26.37;12.13;;;;;;;0.46;98.56;98834.61;1661325;86;25536;-75
2022/12/05 06:34:13;;;;;;;17.50;7.92;;;;;;;0.42;98.27;98829.94;1661349;86;27428;-74
2022/12/05 06:36:40;;;;;;;27.95;11.75;;;;;;;0.41;98.39;98827.80;1661287;86;25486;-79
2022/12/05 06:39:06;;;;;;;19.07;8.18;;;;;;;0.38;98.23;98826.93;1660358;86;25896;-74
2022/12/05 06:41:32;;;;;;;20.35;7.40;;;;;;;0.36;98.45;98824.47;1661317;86;26658;-74
2022/12/05 06:43:59;;;;;;;28.42;12.10;;;;;;;0.31;98.44;98827.58;1661191;85;25753;-76
2022/12/05 06:46:26;;;;;;;29.07;12.75;;;;;;;0.32;98.65;98825.99;1661248;86;27376;-74
2022/12/05 06:48:55;;;;;;;27.50;11.60;;;;;;;0.35;98.70;98830.91;1660891;86;25655;-74
2022/12/05 06:51:21;;;;;;;28.75;12.07;;;;;;;0.37;98.64;98832.02;1661178;86;25478;-77
2022/12/05 06:53:47;;;;;;;32.80;13.83;;;;;;;0.39;98.60;98831.25;1660893;86;26105;-75
2022/12/05 06:56:18;;;;;;;30.97;13.98;;;;;;;0.43;98.64;98832.39;1661206;86;25458;-78
2022/12/05 06:58:47;;;;;;;27.73;11.65;;;;;;;0.47;98.62;98836.78;1661339;86;27294;-77
2022/12/05 07:04:06;;;;;;;24.85;10.15;;;;;;;0.45;98.25;98828.11;1660929;86;25706;-75
2022/12/05 07:06:34;;;;;;;15.43;7.22;;;;;;;0.45;98.14;98837.02;1660450;86;26028;-75
2022/12/05 07:09:01;;;;;;;16.25;8.38;;;;;;;0.41;98.27;98833.70;1661201;86;25667;-75
2022/12/05 07:11:27;;;;;;;27.75;12.95;;;;;;;0.40;98.25;98841.52;1661163;86;27396;-75
2022/12/05 07:13:53;;;;;;;23.00;10.63;;;;;;;0.35;98.34;98838.99;1661219;86;25723;-75
2022/12/05 07:16:24;;;;;;;20.88;9.98;;;;;;;0.34;98.46;98841.93;1661149;86;25562;-75
2022/12/05 07:19:00;;;;;;;27.07;11.80;;;;;;;0.35;98.61;98830.11;1661354;86;26051;-75
2022/12/05 07:21:31;;;;;;;22.40;8.55;;;;;;;0.36;98.68;98837.13;1659648;86;25681;-75
2022/12/05 07:24:07;;;;;;;24.83;11.23;;;;;;;0.35;98.64;98852.47;1658797;86;25939;-75
2022/12/05 07:26:36;;;;;;;16.12;7.42;;;;;;;0.34;98.53;98848.67;1658376;86;25759;-74
2022/12/05 07:29:11;;;;;;;22.10;8.75;;;;;;;0.39;98.53;98858.73;1642052;86;25758;-75
2022/12/05 07:31:37;;;;;;;21.82;9.15;;;;;;;0.39;98.56;98860.91;1661193;86;26795;-74
2022/12/05 07:34:03;;;;;;;24.05;10.98;;;;;;;0.39;98.75;98855.52;1661339;86;25622;-74
2022/12/05 07:36:31;;;;;;;24.10;10.58;;;;;;;0.37;98.67;98853.58;1661434;86;27321;-74
2022/12/05 07:38:58;;;;;;;23.47;11.15;;;;;;;0.41;98.79;98848.02;1660834;86;25639;-75
2022/12/05 07:41:29;;;;;;;23.35;10.85;;;;;;;0.39;98.78;98850.64;1661161;86;25632;-74
2022/12/05 07:43:58;;;;;;;22.70;10.03;;;;;;;0.41;98.80;98854.75;1660798;85;26001;-74
2022/12/05 07:46:26;;;;;;;22.07;9.43;;;;;;;0.45;98.82;98860.47;1661181;86;25712;-74
2022/12/05 07:48:53;;;;;;;29.42;11.75;;;;;;;0.51;98.89;98851.41;1661318;86;27370;-74
2022/12/05 07:51:21;;;;;;;26.73;11.33;;;;;;;0.51;98.62;98849.27;1661306;86;25709;-74
2022/12/05 07:53:47;;;;;;;18.52;8.65;;;;;;;0.50;98.59;98848.44;1661122;86;25751;-75
2022/12/05 07:56:17;;;;;;;23.70;10.28;;;;;;;0.51;98.57;98854.11;1661003;86;26137;-75
2022/12/05 07:58:46;;;;;;;26.12;11.93;;;;;;;0.55;98.72;98849.05;1661152;86;25490;-75
2022/12/05 08:01:18;;;;;;;16.02;7.78;;;;;;;0.57;98.66;98850.96;1661167;86;27437;-74
2022/12/05 08:03:46;;;;;;;15.85;8.38;;;;;;;0.54;98.53;98844.19;1661123;86;25676;-75
2022/12/05 08:06:17;;;;;;;21.10;9.25;;;;;;;0.49;98.56;98858.94;1661340;86;25479;-75
2022/12/05 08:08:44;;;;;;;24.30;11.78;;;;;;;0.48;98.64;98851.38;1660661;86;26688;-75
2022/12/05 08:11:15;;;;;;;19.35;9.40;;;;;;;0.55;98.82;98859.84;1661178;86;25635;-75
2022/12/05 08:13:43;;;;;;;28.92;11.97;;;;;;;0.61;98.78;98871.81;1660893;86;27398;-75
2022/12/05 08:16:18;;;;;;;24.00;10.63;;;;;;;0.62;98.59;98861.85;1661000;86;25775;-74
2022/12/05 08:18:45;;;;;;;28.73;12.20;;;;;;;0.68;98.67;98866.80;1660931;86;25722;-75
2022/12/05 08:21:16;;;;;;;34.45;14.78;;;;;;;0.72;98.59;98864.72;1661137;86;26062;-75
2022/12/05 08:23:43;;;;;;;27.30;12.78;;;;;;;0.77;98.55;98862.64;1659940;86;25730;-75
2022/12/05 08:26:14;;;;;;;28.05;12.20;;;;;;;0.81;98.46;98865.13;1659650;86;28065;-75
2022/12/05 08:28:42;;;;;;;17.55;8.30;;;;;;;0.88;98.62;98864.98;1661238;86;30445;-75
2022/12/05 08:31:16;;;;;;;24.60;10.60;;;;;;;0.86;97.95;98872.49;1661039;86;25525;-75
2022/12/05 08:33:43;;;;;;;26.65;11.73;;;;;;;0.82;97.86;98882.14;1661196;86;26107;-75
2022/12/05 08:36:14;;;;;;;27.45;12.70;;;;;;;0.79;98.08;98868.62;1661098;86;25636;-75
2022/12/05 08:38:41;;;;;;;24.77;10.90;;;;;;;0.83;98.50;98871.11;1660841;86;27405;-75
2022/12/05 08:41:11;;;;;;;19.15;9.15;;;;;;;0.92;98.54;98873.42;1661082;86;25746;-76
2022/12/05 08:43:38;;;;;;;28.57;12.73;;;;;;;0.91;98.05;98867.20;1661514;86;25719;-77
2022/12/05 08:46:05;;;;;;;47.90;16.48;;;;;;;0.90;97.90;98879.58;1660850;85;26140;-75
2022/12/05 08:48:33;;;;;;;29.35;12.82;;;;;;;0.89;97.93;98876.05;1661496;86;25688;-75
2022/12/05 08:51:07;;;;;;;29.98;11.88;;;;;;;0.97;98.40;98877.53;1661185;86;28042;-75
2022/12/05 08:53:34;;;;;;;27.05;12.68;;;;;;;0.98;97.95;98875.14;1661098;86;25699;-75
2022/12/05 08:56:07;;;;;;;28.65;11.38;;;;;;;0.94;97.56;98872.63;1661077;86;25607;-75
2022/12/05 08:58:34;;;;;;;19.10;8.15;;;;;;;0.95;97.77;98876.98;1661150;86;26057;-75
2022/12/05 09:01:14;;;;;;;30.02;13.50;;;;;;;0.96;97.88;98872.69;1661120;86;25664;-76
2022/12/05 09:03:41;;;;;;;35.35;13.40;;;;;;;0.98;97.89;98874.59;1661172;86;28013;-75
2022/12/05 09:06:12;;;;;;;32.58;14.18;;;;;;;1.02;97.83;98868.70;1660943;86;25770;-75
2022/12/05 09:08:39;;;;;;;30.27;14.10;;;;;;;0.94;97.58;98862.66;1661238;86;25691;-75
2022/12/05 09:11:09;;;;;;;27.98;12.23;;;;;;;0.96;97.97;98863.24;1661179;86;26110;-71
2022/12/05 09:13:36;;;;;;;24.80;12.03;;;;;;;1.00;98.12;98860.33;1661334;86;25753;-71
2022/12/05 09:16:13;;;;;;;19.17;9.65;;;;;;;1.07;98.21;98858.00;1661125;86;27304;-71
2022/12/05 09:18:40;;;;;;;19.73;8.40;;;;;;;1.07;97.96;98864.20;1661079;86;25612;-71
2022/12/05 09:21:10;;;;;;;26.52;12.07;;;;;;;1.10;97.94;98865.05;1661044;86;25708;-71
2022/12/05 09:23:36;;;;;;;39.65;15.95;;;;;;;1.12;97.60;98864.81;1661092;86;26004;-72
2022/12/05 09:26:05;;;;;;;36.73;16.07;;;;;;;1.17;97.71;98868.13;1660488;86;25860;-72
2022/12/05 09:28:33;;;;;;;37.55;16.65;;;;;;;1.19;97.84;98866.84;1660850;86;27437;-72
2022/12/05 09:31:03;;;;;;;34.95;13.88;;;;;;;1.28;98.25;98855.60;1661092;86;25679;-72
2022/12/05 09:33:32;;;;;;;33.08;16.10;;;;;;;1.38;98.37;98852.52;1660647;86;25528;-73
2022/12/05 09:36:07;;;;;;;36.73;16.52;;;;;;;1.44;97.91;98848.56;1661028;86;26847;-73
2022/12/05 09:38:34;;;;;;;35.60;16.20;;;;;;;1.55;98.37;98855.72;1661327;86;25536;-77
2022/12/05 09:44:42;;;;;;;37.48;15.00;;;;;;;1.80;98.35;98849.55;1660965;86;25619;-73
2022/12/05 09:47:26;;;;;;;30.37;13.58;;;;;;;1.96;98.39;98847.88;1668158;85;25507;-73
2022/12/05 09:50:18;;;;;;;9.65;5.33;;;;;;;1.96;97.01;98850.58;1667286;85;26689;-73
2022/12/05 09:53:02;;;;;;;26.90;12.53;;;;;;;1.93;96.97;98847.02;1666937;85;25446;-73
2022/12/05 09:56:05;;;;;;;36.38;14.60;;;;;;;1.95;96.89;98855.16;1656428;86;28206;-73
2022/12/05 09:58:48;;;;;;;34.75;14.40;;;;;;;2.06;97.38;98852.56;1689237;84;25682;-73
2022/12/05 10:01:28;;;;;;;36.15;11.28;;;;;;;2.23;97.74;98845.73;1689255;84;25787;-73
2022/12/05 10:04:30;;;;;;;41.30;16.50;;;;;;;2.29;96.70;98847.42;1687945;85;26058;-73
2022/12/05 10:07:17;;;;;;;33.73;16.00;;;;;;;2.25;95.71;98853.86;1687659;85;25702;-73
2022/12/05 10:10:25;;;;;;;50.35;19.80;;;;;;;2.30;96.68;98853.11;1687780;85;28272;-73
2022/12/05 10:13:21;;;;;;;33.10;14.68;;;;;;;2.40;96.89;98851.58;1630328;87;25704;-75
2022/12/05 10:15:55;;;;;;;28.23;12.33;;;;;;;2.51;96.81;98848.72;1631447;87;25751;-74
2022/12/05 10:18:30;;;;;;;26.62;13.35;;;;;;;2.56;96.11;98850.66;1631405;87;26033;-75
2022/12/05 10:21:03;;;;;;;29.72;14.00;;;;;;;2.59;96.29;98839.33;1631708;87;25522;-74
2022/12/05 10:23:41;;;;;;;24.27;12.28;;;;;;;2.67;96.74;98842.66;1631481;87;27417;-74
2022/12/05 10:26:11;;;;;;;27.45;13.48;;;;;;;2.68;96.08;98838.31;1574207;91;25957;-74
2022/12/05 10:28:54;;;;;;;25.75;11.43;;;;;;;2.70;96.12;98832.65;1574163;91;25556;-75
2022/12/05 10:31:25;;;;;;;19.10;8.80;;;;;;;2.63;95.22;98816.12;1591085;88;26789;-75
2022/12/05 10:33:56;;;;;;;29.52;11.33;;;;;;;2.55;95.08;98823.86;1613046;88;30527;-74
2022/12/05 10:36:24;;;;;;;27.48;13.62;;;;;;;2.50;94.96;98829.52;1612804;88;28179;-74
2022/12/05 10:38:50;;;;;;;34.30;15.65;;;;;;;2.45;95.05;98840.27;1612851;88;25763;-75
2022/12/05 10:41:17;;;;;;;38.80;17.27;;;;;;;2.48;95.77;98840.31;1613070;88;25746;-75
2022/12/05 10:43:45;;;;;;;43.15;18.95;;;;;;;2.57;96.17;98842.02;1612972;88;26788;-74
2022/12/05 10:46:13;;;;;;;33.73;15.13;;;;;;;2.62;95.87;98836.11;1598802;88;25697;-74
2022/12/05 10:48:41;;;;;;;34.38;17.00;;;;;;;2.63;95.64;98845.05;1570336;90;27414;-74
2022/12/05 10:51:17;;;;;;;70.97;36.98;;;;;;;2.63;95.58;98835.59;1646035;87;25780;-73
2022/12/05 10:53:48;;;;;;;91.97;55.90;;;;;;;2.68;95.93;98830.20;1647398;87;25554;-73
2022/12/05 10:56:41;;;;;;;;;;;;;;;2.76;95.79;98833.80;1649100;87;26066;-72
2022/12/05 10:59:11;;;;;;;31.20;14.07;;;;;;;2.79;95.57;98837.08;1646900;86;25837;-72
2022/12/05 11:01:45;;;;;;;45.83;23.22;;;;;;;2.82;95.33;98829.80;1647078;87;27399;-72
2022/12/05 11:04:26;;;;;;;70.62;42.30;;;;;;;2.80;94.96;98826.52;1673167;85;25631;-73
2022/12/05 11:07:00;;;;;;;35.92;17.80;;;;;;;2.80;95.30;98832.77;1672801;85;25705;-72
2022/12/05 11:09:33;;;;;;;37.10;17.35;;;;;;;2.87;95.97;98836.06;1677523;85;26074;-72
2022/12/05 11:12:16;;;;;;;34.45;16.90;;;;;;;2.93;96.00;98840.97;1654956;85;25720;-72
2022/12/05 11:15:03;;;;;;;38.75;19.27;;;;;;;3.02;95.79;98827.77;1677515;84;27434;-72
2022/12/05 11:17:36;;;;;;;37.75;16.67;;;;;;;3.12;95.96;98832.45;1677265;84;25506;-73
2022/12/05 11:20:23;;;;;;;37.83;17.27;;;;;;;3.13;95.01;98825.42;1676775;85;25646;-72
2022/12/05 11:22:53;;;;;;;34.98;16.57;;;;;;;3.14;94.93;98821.63;1677168;84;26909;-72
2022/12/05 11:25:34;;;;;;;34.18;15.93;;;;;;;3.18;94.89;98827.35;1677421;84;25460;-72
2022/12/05 11:28:20;;;;;;;29.80;14.53;;;;;;;3.19;94.38;98826.27;1677661;84;27332;-72
2022/12/05 11:31:21;;;;;;;31.52;15.38;;;;;;;3.19;94.07;98828.18;1677382;84;25860;-72
2022/12/05 11:34:05;;;;;;;31.97;15.05;;;;;;;3.18;94.38;98826.00;1677600;84;25659;-73
2022/12/05 11:36:45;;;;;;;36.88;17.40;;;;;;;3.23;94.97;98827.92;1677070;85;26670;-73
2022/12/05 11:39:13;;;;;;;33.05;15.88;;;;;;;3.34;95.70;98821.48;1677390;85;25502;-73
2022/12/05 11:42:09;;;;;;;32.30;15.28;;;;;;;3.36;94.78;98820.69;1677264;85;27461;-73
2022/12/05 11:45:09;;;;;;;87.60;31.20;;;;;;;3.32;94.35;98825.54;1677472;84;25690;-73
2022/12/05 11:48:02;;;;;;;46.53;20.75;;;;;;;3.33;94.69;98824.45;1723701;82;25492;-73
2022/12/05 11:50:42;;;;;;;35.00;16.12;;;;;;;3.39;95.24;98829.65;1723741;83;26043;-73
2022/12/05 11:53:39;;;;;;;43.27;17.60;;;;;;;3.41;94.44;98824.50;1723898;83;25420;-73
2022/12/05 11:56:33;;;;;;;37.83;17.52;;;;;;;3.44;94.73;98822.09;1723645;82;27432;-73
2022/12/05 11:59:25;;;;;;;37.15;17.25;;;;;;;3.45;94.24;98816.94;1723566;83;25594;-74
2022/12/05 12:02:24;;;;;;;39.20;15.25;;;;;;;3.47;94.39;98810.73;1723256;82;25814;-73
2022/12/05 12:05:24;;;;;;;94.22;29.45;;;;;;;3.57;94.23;98815.93;1718942;83;26205;-73